createdAt,value
2022-12-25T00:00:20.726Z,100842.28
2022-12-25T00:02:48.879Z,100843.66
2022-12-25T00:05:16.856Z,100840.47
2022-12-25T00:07:44.352Z,100835.16
2022-12-25T00:10:12.382Z,100828.66
2022-12-25T00:12:40.125Z,100826.19
2022-12-25T00:15:08.278Z,100825.00
2022-12-25T00:17:37.194Z,100811.06
2022-12-25T00:20:05.687Z,100809.41
2022-12-25T00:22:33.398Z,100805.09
2022-12-25T00:25:00.950Z,100799.78
2022-12-25T00:27:32.676Z,100792.47
2022-12-25T00:30:00.521Z,100795.47
2022-12-25T00:32:28.166Z,100800.47
2022-12-25T00:34:57.106Z,100797.13
2022-12-25T00:37:24.652Z,100803.13
2022-12-25T00:39:52.221Z,100802.94
2022-12-25T00:42:19.805Z,100806.78
2022-12-25T00:44:47.531Z,100808.66
2022-12-25T00:47:15.529Z,100812.16
2022-12-25T00:49:43.204Z,100824.97
2022-12-25T00:52:12.194Z,100828.13
2022-12-25T00:54:40.001Z,100817.97
2022-12-25T00:57:07.599Z,100818.44
2022-12-25T00:59:35.729Z,100816.78
2022-12-25T01:02:58.253Z,100800.19
2022-12-25T01:05:25.878Z,100798.81
2022-12-25T01:07:56.817Z,100801.88
2022-12-25T01:10:23.647Z,100798.19
2022-12-25T01:12:52.277Z,100805.03
2022-12-25T01:15:22.891Z,100818.47
2022-12-25T01:17:50.853Z,100809.69
2022-12-25T01:20:19.225Z,100820.00
2022-12-25T01:22:48.508Z,100818.66
2022-12-25T01:25:19.594Z,100822.47
2022-12-25T01:27:47.597Z,100823.81
2022-12-25T01:30:17.578Z,100821.34
2022-12-25T01:32:45.547Z,100839.44
2022-12-25T01:35:13.181Z,100842.25
2022-12-25T01:37:40.720Z,100828.47
2022-12-25T01:40:09.829Z,100832.13
2022-12-25T01:42:38.898Z,100828.16
2022-12-25T01:45:34.694Z,100830.81
2022-12-25T01:48:04.592Z,100827.81
2022-12-25T01:50:32.308Z,100826.31
2022-12-25T01:52:59.849Z,100824.34
2022-12-25T01:55:27.847Z,100810.72
2022-12-25T01:57:57.199Z,100814.22
2022-12-25T02:00:24.967Z,100809.41
2022-12-25T02:02:55.644Z,100804.44
2022-12-25T02:05:26.865Z,100799.78
2022-12-25T02:07:55.870Z,100813.53
2022-12-25T02:10:23.473Z,100816.47
2022-12-25T02:12:51.074Z,100820.13
2022-12-25T02:15:22.701Z,100812.53
2022-12-25T02:17:58.629Z,100811.22
2022-12-25T02:20:37.086Z,100804.44
2022-12-25T02:23:14.856Z,100799.31
2022-12-25T02:25:49.745Z,100796.31
2022-12-25T02:28:21.366Z,100800.28
2022-12-25T02:30:53.964Z,100809.50
2022-12-25T02:33:43.121Z,100811.22
2022-12-25T02:36:15.194Z,100803.75
2022-12-25T02:39:03.104Z,100796.31
2022-12-25T02:41:34.084Z,100801.78
2022-12-25T02:44:23.048Z,100793.31
2022-12-25T02:47:08.260Z,100790.00
2022-12-25T02:49:53.147Z,100789.34
2022-12-25T02:52:39.559Z,100787.66
2022-12-25T02:55:28.419Z,100782.97
2022-12-25T02:58:15.134Z,100782.00
2022-12-25T03:01:05.463Z,100789.25
2022-12-25T03:03:53.296Z,100786.31
2022-12-25T03:06:39.197Z,100788.78
2022-12-25T03:09:21.285Z,100778.38
2022-12-25T03:11:49.324Z,100774.09
2022-12-25T03:14:34.857Z,100781.34
2022-12-25T03:17:03.741Z,100793.59
2022-12-25T03:19:51.024Z,100794.28
2022-12-25T03:22:40.761Z,100794.59
2022-12-25T03:25:26.523Z,100805.91
2022-12-25T03:27:56.593Z,100800.91
2022-12-25T03:30:42.237Z,100800.63
2022-12-25T03:33:43.811Z,100806.25
2022-12-25T03:36:10.080Z,100795.16
2022-12-25T03:39:02.345Z,100792.16
2022-12-25T03:41:52.263Z,100797.59
2022-12-25T03:44:42.581Z,100794.63
2022-12-25T03:47:36.211Z,100793.63
2022-12-25T03:50:26.075Z,100795.59
2022-12-25T03:53:12.269Z,100780.00
2022-12-25T03:55:54.520Z,100773.06
2022-12-25T03:58:42.050Z,100765.44
2022-12-25T04:01:27.505Z,100767.09
2022-12-25T04:04:12.636Z,100766.91
2022-12-25T04:06:59.089Z,100759.31
2022-12-25T04:09:44.464Z,100758.81
2022-12-25T04:12:29.653Z,100754.16
2022-12-25T04:15:14.915Z,100752.34
2022-12-25T04:18:14.489Z,100756.16
2022-12-25T04:20:59.796Z,100751.66
2022-12-25T04:23:46.416Z,100755.16
2022-12-25T04:26:31.135Z,100761.59
2022-12-25T04:29:16.434Z,100752.16
2022-12-25T04:32:01.710Z,100748.81
2022-12-25T04:34:47.194Z,100749.72
2022-12-25T04:37:14.661Z,100759.34
2022-12-25T04:39:43.489Z,100758.69
2022-12-25T04:42:10.970Z,100769.09
2022-12-25T04:44:38.434Z,100757.66
2022-12-25T04:47:11.151Z,100760.72
2022-12-25T04:49:39.288Z,100747.84
2022-12-25T04:52:06.736Z,100757.94
2022-12-25T04:54:34.220Z,100756.81
2022-12-25T04:57:03.055Z,100763.75
2022-12-25T04:59:30.526Z,100761.28
2022-12-25T05:01:58.147Z,100761.09
2022-12-25T05:04:25.709Z,100755.78
2022-12-25T05:06:53.168Z,100747.66
2022-12-25T05:09:21.447Z,100744.19
2022-12-25T05:11:48.881Z,100754.81
2022-12-25T05:14:17.787Z,100755.78
2022-12-25T05:16:45.401Z,100763.63
2022-12-25T05:19:12.861Z,100761.63
2022-12-25T05:21:40.320Z,100762.47
2022-12-25T05:24:08.174Z,100756.16
2022-12-25T05:26:35.617Z,100758.44
2022-12-25T05:29:03.055Z,100753.13
2022-12-25T05:31:31.995Z,100752.81
2022-12-25T05:33:59.497Z,100758.81
2022-12-25T05:36:26.992Z,100754.81
2022-12-25T05:38:54.441Z,100763.97
2022-12-25T05:41:21.945Z,100760.13
2022-12-25T05:43:49.451Z,100748.84
2022-12-25T05:46:17.792Z,100744.53
2022-12-25T05:48:46.645Z,100747.66
2022-12-25T05:51:15.414Z,100747.84
2022-12-25T05:53:43.850Z,100748.03
2022-12-25T05:56:11.700Z,100751.53
2022-12-25T05:58:40.520Z,100752.66
2022-12-25T06:01:11.876Z,100739.56
2022-12-25T06:03:39.489Z,100741.53
2022-12-25T06:06:08.572Z,100746.34
2022-12-25T06:08:36.183Z,100748.50
2022-12-25T06:11:05.327Z,100738.56
2022-12-25T06:13:33.846Z,100734.59
2022-12-25T06:16:04.796Z,100728.78
2022-12-25T06:18:32.512Z,100725.63
2022-12-25T06:20:59.971Z,100734.25
2022-12-25T06:23:28.858Z,100716.81
2022-12-25T06:25:56.296Z,100716.59
2022-12-25T06:28:23.755Z,100714.22
2022-12-25T06:30:51.223Z,100700.75
2022-12-25T06:33:19.692Z,100698.78
2022-12-25T06:35:47.148Z,100709.13
2022-12-25T06:38:14.586Z,100710.59
2022-12-25T06:40:43.380Z,100707.78
2022-12-25T06:43:10.805Z,100705.91
2022-12-25T06:45:38.297Z,100702.25
2022-12-25T06:48:06.182Z,100714.25
2022-12-25T06:50:33.641Z,100716.09
2022-12-25T06:53:01.107Z,100721.22
2022-12-25T06:55:28.577Z,100709.25
2022-12-25T06:57:57.369Z,100711.72
2022-12-25T07:00:24.835Z,100708.94
2022-12-25T07:02:52.571Z,100715.81
2022-12-25T07:05:20.128Z,100725.63
2022-12-25T07:07:47.573Z,100726.63
2022-12-25T07:10:15.218Z,100723.97
2022-12-25T07:12:42.691Z,100725.28
2022-12-25T07:15:12.008Z,100717.31
2022-12-25T07:17:39.527Z,100725.13
2022-12-25T07:20:08.451Z,100725.44
2022-12-25T07:22:35.969Z,100720.97
2022-12-25T07:25:03.505Z,100722.13
2022-12-25T07:27:31.032Z,100716.63
2022-12-25T07:29:58.480Z,100709.16
2022-12-25T07:32:27.297Z,100697.81
2022-12-25T07:34:54.717Z,100701.09
2022-12-25T07:37:22.171Z,100700.22
2022-12-25T07:39:49.628Z,100701.22
2022-12-25T07:42:21.754Z,100695.25
2022-12-25T07:44:52.424Z,100693.03
2022-12-25T07:47:19.862Z,100693.59
2022-12-25T07:49:48.657Z,100690.94
2022-12-25T07:52:16.128Z,100698.22
2022-12-25T07:54:43.602Z,100704.63
2022-12-25T07:57:11.115Z,100707.78
2022-12-25T07:59:38.557Z,100701.88
2022-12-25T08:02:06.359Z,100694.91
2022-12-25T08:04:34.031Z,100698.34
2022-12-25T08:07:02.876Z,100699.53
2022-12-25T08:09:30.301Z,100715.59
2022-12-25T08:11:57.807Z,100705.53
2022-12-25T08:14:25.330Z,100687.94
2022-12-25T08:16:52.919Z,100677.28
2022-12-25T08:19:20.548Z,100668.34
2022-12-25T08:21:48.019Z,100652.00
2022-12-25T08:24:16.870Z,100645.25
2022-12-25T08:26:44.354Z,100632.22
2022-12-25T08:29:11.805Z,100637.16
2022-12-25T08:31:45.783Z,100644.50
2022-12-25T08:34:13.717Z,100671.72
2022-12-25T08:36:41.441Z,100683.16
2022-12-25T08:39:09.146Z,100678.44
2022-12-25T08:41:40.262Z,100671.19
2022-12-25T08:44:08.044Z,100662.38
2022-12-25T08:46:36.620Z,100653.16
2022-12-25T08:49:04.273Z,100650.81
2022-12-25T08:51:31.860Z,100644.06
2022-12-25T08:54:01.136Z,100636.84
2022-12-25T08:56:28.848Z,100637.88
2022-12-25T08:58:57.756Z,100653.16
2022-12-25T09:01:25.409Z,100657.38
2022-12-25T09:03:53.045Z,100669.88
2022-12-25T09:06:20.663Z,100675.22
2022-12-25T09:08:49.800Z,100682.53
2022-12-25T09:11:19.168Z,100689.88
2022-12-25T09:13:46.915Z,100689.53
2022-12-25T09:16:18.076Z,100692.81
2022-12-25T09:18:45.814Z,100684.44
2022-12-25T09:21:15.761Z,100685.81
2022-12-25T09:23:43.615Z,100674.59
2022-12-25T09:26:13.518Z,100673.41
2022-12-25T09:28:45.333Z,100666.84
2022-12-25T09:31:19.560Z,100664.50
2022-12-25T09:33:47.353Z,100668.59
2022-12-25T09:36:15.149Z,100672.06
2022-12-25T09:38:42.920Z,100668.84
2022-12-25T09:41:15.963Z,100669.69
2022-12-25T09:43:47.053Z,100671.22
2022-12-25T09:46:16.981Z,100670.19
2022-12-25T09:52:34.859Z,100655.16
2022-12-25T09:55:08.038Z,100654.72
2022-12-25T09:57:35.495Z,100651.56
2022-12-25T10:00:03.119Z,100643.72
2022-12-25T10:02:37.718Z,100641.53
2022-12-25T10:05:19.550Z,100625.09
2022-12-25T10:07:51.840Z,100608.97
2022-12-25T10:10:30.601Z,100602.66
2022-12-25T10:13:04.182Z,100596.25
2022-12-25T10:15:36.712Z,100587.91
2022-12-25T10:18:33.854Z,100573.09
2022-12-25T10:21:05.720Z,100568.13
2022-12-25T10:23:39.424Z,100570.34
2022-12-25T10:26:15.202Z,100586.88
2022-12-25T10:28:45.764Z,100605.31
2022-12-25T10:31:20.444Z,100622.94
2022-12-25T10:33:48.138Z,100614.16
2022-12-25T10:36:21.017Z,100619.91
2022-12-25T10:38:48.931Z,100611.31
2022-12-25T10:41:27.312Z,100604.47
2022-12-25T10:43:56.332Z,100589.63
2022-12-25T10:46:27.452Z,100584.38
2022-12-25T10:48:57.692Z,100570.81
2022-12-25T10:51:31.616Z,100587.78
2022-12-25T10:53:59.201Z,100583.00
2022-12-25T10:56:26.773Z,100579.31
2022-12-25T10:59:05.624Z,100582.16
2022-12-25T11:01:33.306Z,100576.91
2022-12-25T11:04:01.019Z,100562.50
2022-12-25T11:06:32.018Z,100562.09
2022-12-25T11:09:01.742Z,100568.16
2022-12-25T11:11:30.699Z,100572.53
2022-12-25T11:14:00.232Z,100562.13
2022-12-25T11:16:30.759Z,100558.63
2022-12-25T11:18:59.818Z,100556.00
2022-12-25T11:21:31.168Z,100557.69
2022-12-25T11:24:00.386Z,100565.00
2022-12-25T11:26:28.300Z,100557.38
2022-12-25T11:28:56.633Z,100561.69
2022-12-25T11:31:30.987Z,100561.13
2022-12-25T11:34:01.632Z,100559.03
2022-12-25T11:36:33.165Z,100546.03
2022-12-25T11:39:02.746Z,100547.69
2022-12-25T11:41:33.540Z,100550.44
2022-12-25T11:44:04.864Z,100545.00
2022-12-25T11:46:37.176Z,100530.13
2022-12-25T11:49:08.280Z,100531.88
2022-12-25T11:51:39.835Z,100526.00
2022-12-25T11:54:15.514Z,100523.25
2022-12-25T11:56:43.402Z,100519.03
2022-12-25T11:59:18.239Z,100504.88
2022-12-25T12:01:48.311Z,100498.72
2022-12-25T12:04:24.310Z,100484.28
2022-12-25T12:06:58.600Z,100475.31
2022-12-25T12:09:37.781Z,100461.56
2022-12-25T12:12:09.890Z,100449.03
2022-12-25T12:14:46.499Z,100437.31
2022-12-25T12:17:16.032Z,100435.31
2022-12-25T12:19:43.548Z,100463.34
2022-12-25T12:22:25.106Z,100466.84
2022-12-25T12:24:56.682Z,100463.94
2022-12-25T12:27:28.300Z,100464.66
2022-12-25T12:29:57.549Z,100454.44
2022-12-25T12:32:31.126Z,100451.53
2022-12-25T12:34:59.012Z,100456.84
2022-12-25T12:37:30.315Z,100448.09
2022-12-25T12:39:57.903Z,100438.09
2022-12-25T12:42:27.530Z,100428.69
2022-12-25T12:44:55.679Z,100435.72
2022-12-25T12:47:31.230Z,100437.75
2022-12-25T12:50:00.284Z,100442.19
2022-12-25T12:52:33.403Z,100453.31
2022-12-25T12:55:02.763Z,100456.84
2022-12-25T12:57:32.727Z,100442.56
2022-12-25T13:00:08.623Z,100439.94
2022-12-25T13:03:06.715Z,100442.59
2022-12-25T13:05:39.242Z,100426.03
2022-12-25T13:08:15.683Z,100437.38
2022-12-25T13:10:46.758Z,100422.28
2022-12-25T13:13:17.979Z,100415.75
2022-12-25T13:15:47.525Z,100426.38
2022-12-25T13:18:15.499Z,100428.88
2022-12-25T13:20:46.906Z,100440.78
2022-12-25T13:23:22.253Z,100449.34
2022-12-25T13:25:53.538Z,100443.31
2022-12-25T13:28:26.719Z,100448.47
2022-12-25T13:30:54.273Z,100440.03
2022-12-25T13:33:22.012Z,100428.66
2022-12-25T13:35:49.556Z,100422.06
2022-12-25T13:38:18.905Z,100418.56
2022-12-25T13:41:11.228Z,100408.28
2022-12-25T13:43:39.221Z,100413.28
2022-12-25T13:46:06.942Z,100402.41
2022-12-25T13:48:34.604Z,100391.75
2022-12-25T13:51:03.043Z,100388.28
2022-12-25T13:53:32.172Z,100380.88
2022-12-25T13:56:00.269Z,100385.75
2022-12-25T13:58:30.939Z,100394.13
2022-12-25T14:00:59.554Z,100408.09
2022-12-25T14:03:32.151Z,100400.09
2022-12-25T14:06:01.993Z,100395.16
2022-12-25T14:08:32.467Z,100395.53
2022-12-25T14:11:03.562Z,100401.50
2022-12-25T14:13:32.000Z,100408.50
2022-12-25T14:15:59.750Z,100412.59
2022-12-25T14:18:28.054Z,100419.19
2022-12-25T14:20:59.148Z,100409.31
2022-12-25T14:23:26.957Z,100404.38
2022-12-25T14:25:56.389Z,100410.13
2022-12-25T14:28:26.739Z,100420.56
2022-12-25T14:30:54.545Z,100410.56
2022-12-25T14:33:23.990Z,100403.81
2022-12-25T14:35:52.401Z,100391.66
2022-12-25T14:38:24.141Z,100399.38
2022-12-25T14:41:00.647Z,100406.72
2022-12-25T14:43:29.624Z,100414.50
2022-12-25T14:45:58.841Z,100415.91
2022-12-25T14:48:27.917Z,100422.66
2022-12-25T14:50:58.736Z,100428.84
2022-12-25T14:53:33.418Z,100420.97
2022-12-25T14:56:02.327Z,100418.22
2022-12-25T14:58:32.695Z,100412.84
2022-12-25T15:01:02.379Z,100409.97
2022-12-25T15:03:32.772Z,100411.56
2022-12-25T15:06:02.268Z,100414.03
2022-12-25T15:08:31.231Z,100408.22
2022-12-25T15:11:01.675Z,100407.34
2022-12-25T15:13:31.964Z,100394.97
2022-12-25T15:16:02.502Z,100396.94
2022-12-25T15:18:32.922Z,100403.47
2022-12-25T15:21:00.564Z,100400.38
2022-12-25T15:23:28.035Z,100402.31
2022-12-25T15:25:55.487Z,100407.38
2022-12-25T15:28:22.957Z,100394.78
2022-12-25T15:30:52.024Z,100394.97
2022-12-25T15:33:20.105Z,100395.91
2022-12-25T15:35:47.596Z,100395.41
2022-12-25T15:38:15.195Z,100396.22
2022-12-25T15:40:43.004Z,100390.31
2022-12-25T15:43:38.987Z,100388.22
2022-12-25T15:46:02.682Z,100396.56
2022-12-25T15:48:30.172Z,100392.53
2022-12-25T15:50:57.661Z,100392.66
2022-12-25T15:53:26.798Z,100396.00
2022-12-25T15:55:54.367Z,100400.69
2022-12-25T15:58:21.789Z,100402.91
2022-12-25T16:00:49.903Z,100405.56
2022-12-25T16:03:18.708Z,100407.38
2022-12-25T16:05:46.315Z,100412.16
2022-12-25T16:08:13.822Z,100406.84
2022-12-25T16:10:41.429Z,100402.72
2022-12-25T16:13:08.901Z,100409.59
2022-12-25T16:15:36.430Z,100392.25
2022-12-25T16:18:04.388Z,100379.34
2022-12-25T16:20:33.278Z,100389.22
2022-12-25T16:23:00.752Z,100376.03
2022-12-25T16:25:28.265Z,100364.03
2022-12-25T16:27:55.736Z,100374.56
2022-12-25T16:30:23.253Z,100369.72
2022-12-25T16:32:51.705Z,100368.69
2022-12-25T16:35:19.337Z,100361.72
2022-12-25T16:37:48.142Z,100371.53
2022-12-25T16:40:15.711Z,100383.50
2022-12-25T16:42:43.294Z,100375.59
2022-12-25T16:45:11.715Z,100383.38
2022-12-25T16:47:39.266Z,100391.91
2022-12-25T16:50:09.800Z,100391.25
2022-12-25T16:52:37.368Z,100384.41
2022-12-25T16:55:06.981Z,100379.47
2022-12-25T16:57:34.675Z,100387.16
2022-12-25T17:00:02.328Z,100387.50
2022-12-25T17:02:30.276Z,100404.47
2022-12-25T17:04:58.049Z,100407.31
2022-12-25T17:07:25.589Z,100417.47
2022-12-25T17:09:53.075Z,100435.41
2022-12-25T17:12:21.912Z,100420.69
2022-12-25T17:14:49.403Z,100413.66
2022-12-25T17:17:16.995Z,100423.50
2022-12-25T17:19:44.563Z,100416.91
2022-12-25T17:22:12.137Z,100419.81
2022-12-25T17:24:41.348Z,100423.25
2022-12-25T17:27:09.389Z,100414.81
2022-12-25T17:29:39.670Z,100425.22
2022-12-25T17:32:07.769Z,100436.50
2022-12-25T17:34:35.443Z,100431.56
2022-12-25T17:37:02.957Z,100429.81
2022-12-25T17:39:30.649Z,100422.13
2022-12-25T17:41:58.381Z,100406.94
2022-12-25T17:44:28.886Z,100402.97
2022-12-25T17:46:57.774Z,100395.66
2022-12-25T17:49:25.544Z,100389.31
2022-12-25T17:51:54.857Z,100385.38
2022-12-25T17:54:22.472Z,100376.75
2022-12-25T17:56:50.628Z,100376.84
2022-12-25T17:59:19.133Z,100387.00
2022-12-25T18:01:48.909Z,100386.72
2022-12-25T18:04:17.929Z,100398.16
2022-12-25T18:06:45.725Z,100398.25
2022-12-25T18:09:13.847Z,100405.56
2022-12-25T18:11:43.150Z,100390.84
2022-12-25T18:14:13.090Z,100401.09
2022-12-25T18:16:43.324Z,100402.66
2022-12-25T18:19:11.134Z,100391.59
2022-12-25T18:21:40.192Z,100401.66
2022-12-25T18:24:09.001Z,100393.94
2022-12-25T18:26:37.471Z,100398.09
2022-12-25T18:29:06.686Z,100393.94
2022-12-25T18:31:34.718Z,100386.53
2022-12-25T18:34:02.449Z,100386.63
2022-12-25T18:36:30.874Z,100387.47
2022-12-25T18:39:00.303Z,100382.22
2022-12-25T18:41:30.158Z,100378.00
2022-12-25T18:43:58.173Z,100355.97
2022-12-25T18:46:26.708Z,100366.25
2022-12-25T18:48:54.817Z,100375.97
2022-12-25T18:51:22.320Z,100375.69
2022-12-25T18:53:49.853Z,100374.53
2022-12-25T18:56:19.092Z,100385.94
2022-12-25T18:58:47.022Z,100385.34
2022-12-25T19:01:16.047Z,100379.56
2022-12-25T19:03:44.057Z,100375.19
2022-12-25T19:06:17.757Z,100368.41
2022-12-25T19:08:45.464Z,100367.69
2022-12-25T19:11:13.142Z,100364.47
2022-12-25T19:13:42.195Z,100367.38
2022-12-25T19:16:10.830Z,100364.84
2022-12-25T19:18:38.760Z,100358.69
2022-12-25T19:21:08.201Z,100353.78
2022-12-25T19:23:37.663Z,100358.94
2022-12-25T19:26:05.839Z,100355.25
2022-12-25T19:28:33.395Z,100372.28
2022-12-25T19:31:02.918Z,100364.13
2022-12-25T19:33:32.147Z,100370.16
2022-12-25T19:36:00.815Z,100376.69
2022-12-25T19:38:28.488Z,100392.28
2022-12-25T19:41:02.280Z,100397.78
2022-12-25T19:43:30.479Z,100397.78
2022-12-25T19:45:58.445Z,100391.38
2022-12-25T19:48:27.382Z,100385.03
2022-12-25T19:50:55.314Z,100380.91
2022-12-25T19:53:24.060Z,100386.13
2022-12-25T19:55:52.231Z,100388.34
2022-12-25T19:58:19.849Z,100384.19
2022-12-25T20:00:58.003Z,100382.63
2022-12-25T20:03:27.320Z,100385.28
2022-12-25T20:05:55.074Z,100383.28
2022-12-25T20:08:22.681Z,100379.25
2022-12-25T20:10:50.551Z,100372.66
2022-12-25T20:13:18.224Z,100369.34
2022-12-25T20:15:46.100Z,100376.03
2022-12-25T20:18:13.637Z,100375.41
2022-12-25T20:20:42.851Z,100394.56
2022-12-25T20:23:10.719Z,100387.50
2022-12-25T20:25:40.510Z,100376.50
2022-12-25T20:28:08.291Z,100374.94
2022-12-25T20:30:39.433Z,100376.31
2022-12-25T20:33:07.014Z,100368.91
2022-12-25T20:35:34.580Z,100374.22
2022-12-25T20:38:03.558Z,100383.38
2022-12-25T20:40:37.584Z,100395.59
2022-12-25T20:43:18.743Z,100389.78
2022-12-25T20:45:46.572Z,100389.34
2022-12-25T20:48:14.164Z,100371.66
2022-12-25T20:50:41.711Z,100375.75
2022-12-25T20:53:10.716Z,100376.84
2022-12-25T20:55:38.374Z,100382.72
2022-12-25T20:58:05.879Z,100382.44
2022-12-25T21:00:33.530Z,100384.81
2022-12-25T21:03:01.145Z,100396.47
2022-12-25T21:05:28.856Z,100415.56
2022-12-25T21:07:56.440Z,100417.09
2022-12-25T21:10:25.549Z,100423.59
2022-12-25T21:12:53.118Z,100422.97
2022-12-25T21:15:20.832Z,100416.63
2022-12-25T21:17:48.400Z,100410.69
2022-12-25T21:20:16.098Z,100420.50
2022-12-25T21:22:43.693Z,100421.41
2022-12-25T21:25:11.299Z,100424.25
2022-12-25T21:27:40.558Z,100423.81
2022-12-25T21:30:14.393Z,100424.44
2022-12-25T21:33:00.514Z,100423.06
2022-12-25T21:35:28.124Z,100422.16
2022-12-25T21:37:55.727Z,100438.53
2022-12-25T21:40:23.286Z,100440.75
2022-12-25T21:42:52.851Z,100444.81
2022-12-25T21:45:20.406Z,100440.84
2022-12-25T21:48:02.447Z,100451.38
2022-12-25T21:50:48.784Z,100447.44
2022-12-25T21:53:16.763Z,100447.19
2022-12-25T21:55:44.349Z,100444.16
2022-12-25T21:58:13.233Z,100444.88
2022-12-25T22:00:40.778Z,100440.59
2022-12-25T22:03:08.508Z,100444.09
2022-12-25T22:05:54.905Z,100458.28
2022-12-25T22:08:22.469Z,100448.38
2022-12-25T22:10:50.029Z,100447.28
2022-12-25T22:13:36.553Z,100458.19
2022-12-25T22:16:22.509Z,100442.59
2022-12-25T22:19:07.651Z,100443.50
2022-12-25T22:21:35.321Z,100433.38
2022-12-25T22:24:02.900Z,100435.59
2022-12-25T22:26:31.151Z,100437.63
2022-12-25T22:29:00.112Z,100438.00
2022-12-25T22:31:27.703Z,100440.00
2022-12-25T22:33:55.342Z,100443.88
2022-12-25T22:36:23.527Z,100436.59
2022-12-25T22:38:51.067Z,100438.81
2022-12-25T22:41:21.616Z,100440.72
2022-12-25T22:44:16.496Z,100429.81
2022-12-25T22:46:40.593Z,100438.00
2022-12-25T22:49:08.505Z,100439.25
2022-12-25T22:51:38.480Z,100440.47
2022-12-25T22:54:12.440Z,100440.84
2022-12-25T22:56:40.986Z,100437.63
2022-12-25T22:59:09.272Z,100436.22
2022-12-25T23:01:40.038Z,100435.13
2022-12-25T23:04:09.216Z,100428.19
2022-12-25T23:06:37.499Z,100444.53
2022-12-25T23:09:08.312Z,100435.13
2022-12-25T23:11:38.039Z,100454.03
2022-12-25T23:14:28.123Z,100450.38
2022-12-25T23:16:57.453Z,100436.59
2022-12-25T23:19:42.648Z,100452.00
2022-12-25T23:22:33.546Z,100458.34
2022-12-25T23:25:21.069Z,100460.00
2022-12-25T23:27:48.917Z,100465.97
2022-12-25T23:30:16.878Z,100461.66
2022-12-25T23:32:46.031Z,100456.56
2022-12-25T23:35:16.202Z,100465.59
2022-12-25T23:37:58.757Z,100470.16
2022-12-25T23:40:26.705Z,100456.53
2022-12-25T23:42:54.707Z,100452.38
2022-12-25T23:45:25.270Z,100454.94
2022-12-25T23:47:56.772Z,100451.63
2022-12-25T23:50:24.667Z,100465.41
2022-12-25T23:52:52.871Z,100462.28
2022-12-25T23:55:21.139Z,100449.63
2022-12-25T23:57:49.209Z,100445.19
